Time;durP1;ratioP1;P1;durP2;ratioP2;P2;SDS_P1;SDS_P2;PMS_P1;PMS_P2;Temp;Humidity;BMP_temperature;BMP_pressure;BME280_temperature;BME280_humidity;BME280_pressure;Samples;Min_cycle;Max_cycle;Signal;HPM_P1;HPM_P2
2022/11/22 00:00:07;;;;;;;18.75;11.65;;;;;;;5.41;100.00;99958.81;5006923;28;20124;-76
2022/11/22 00:02:35;;;;;;;18.40;9.60;;;;;;;5.77;100.00;100040.84;5004059;28;20052;-78
2022/11/22 00:05:02;;;;;;;18.83;11.77;;;;;;;4.88;100.00;99906.06;5007440;28;20049;-77
2022/11/22 00:07:28;;;;;;;16.98;11.98;;;;;;;5.86;100.00;100017.53;4990503;28;20180;-76
2022/11/22 00:09:53;;;;;;;15.57;10.63;;;;;;;5.54;100.00;99961.56;5008642;28;20176;-77
2022/11/22 00:12:19;;;;;;;16.30;11.55;;;;;;;5.09;100.00;99890.75;5006101;28;20053;-77
2022/11/22 00:14:45;;;;;;;15.20;10.30;;;;;;;5.72;100.00;100027.75;5006425;28;20472;-77
2022/11/22 00:17:12;;;;;;;18.95;12.65;;;;;;;4.46;100.00;99811.00;5003726;28;20373;-77
2022/11/22 00:19:41;;;;;;;18.45;11.32;;;;;;;5.05;100.00;99918.41;4998264;28;20426;-76
2022/11/22 00:22:07;;;;;;;15.80;10.52;;;;;;;5.74;100.00;100046.00;5007375;28;20556;-77
2022/11/22 00:24:33;;;;;;;18.77;13.18;;;;;;;5.83;100.00;100047.84;4999475;28;20073;-76
2022/11/22 00:26:58;;;;;;;18.25;12.10;;;;;;;5.32;100.00;100054.94;5007072;28;20058;-76
2022/11/22 00:29:24;;;;;;;22.23;12.75;;;;;;;4.77;100.00;99960.47;5008656;28;20078;-77
2022/11/22 00:31:49;;;;;;;17.17;11.52;;;;;;;5.44;100.00;100062.06;4996064;28;20046;-75
2022/11/22 00:34:15;;;;;;;20.70;11.05;;;;;;;4.89;100.00;99944.19;5004915;28;20037;-76
2022/11/22 00:36:40;;;;;;;17.98;11.93;;;;;;;5.00;100.00;99929.63;5007523;28;20050;-76
2022/11/22 00:39:06;;;;;;;24.60;13.80;;;;;;;5.49;100.00;100034.38;5013136;28;20042;-76
2022/11/22 00:41:31;;;;;;;24.55;15.63;;;;;;;5.66;100.00;100063.22;5015263;28;20048;-79
2022/11/22 00:43:57;;;;;;;19.33;12.90;;;;;;;5.59;100.00;100036.25;5011858;28;20544;-78
2022/11/22 00:46:22;;;;;;;16.85;12.07;;;;;;;4.78;100.00;99911.13;5006803;28;20034;-79
2022/11/22 00:48:47;;;;;;;53.80;13.15;;;;;;;4.90;100.00;100010.94;5009055;28;20033;-79
2022/11/22 00:51:13;;;;;;;27.63;12.57;;;;;;;4.96;100.00;100048.28;5000294;28;20550;-80
2022/11/22 00:53:38;;;;;;;27.13;11.20;;;;;;;4.77;100.00;100018.50;5003589;28;20371;-78
2022/11/22 00:56:04;;;;;;;18.25;12.45;;;;;;;5.04;100.00;100072.69;5005452;28;20045;-79
2022/11/22 00:58:29;;;;;;;26.75;14.38;;;;;;;4.13;100.00;99942.91;5005336;28;20030;-78
2022/11/22 01:00:55;;;;;;;19.98;12.13;;;;;;;4.11;100.00;99938.56;5012704;28;20025;-78
2022/11/22 01:03:20;;;;;;;16.80;11.45;;;;;;;4.20;100.00;99907.56;4991487;28;20053;-78
2022/11/22 01:05:45;;;;;;;22.63;14.02;;;;;;;4.98;100.00;100022.31;5005363;28;20050;-78
2022/11/22 01:08:11;;;;;;;34.45;14.32;;;;;;;5.20;100.00;100032.22;5003671;28;20496;-78
2022/11/22 01:10:37;;;;;;;14.88;11.55;;;;;;;4.78;100.00;99991.69;5004956;28;20033;-79
2022/11/22 01:13:04;;;;;;;21.70;13.55;;;;;;;5.07;100.00;100051.06;5000969;28;20038;-80
2022/11/22 01:15:29;;;;;;;29.27;15.63;;;;;;;5.26;100.00;100084.31;5002465;28;20053;-78
2022/11/22 01:17:57;;;;;;;22.50;13.25;;;;;;;5.22;100.00;100086.84;5002292;28;20046;-78
2022/11/22 01:20:23;;;;;;;24.48;12.77;;;;;;;4.86;100.00;100046.38;5006557;28;20516;-79
2022/11/22 01:22:48;;;;;;;20.77;14.45;;;;;;;5.44;100.00;100070.72;5004943;28;20049;-79
2022/11/22 01:25:14;;;;;;;19.52;12.52;;;;;;;4.72;100.00;99944.78;5004899;28;20104;-82
2022/11/22 01:27:40;;;;;;;23.45;14.70;;;;;;;5.60;100.00;100084.00;5003773;28;20063;-80
2022/11/22 01:30:06;;;;;;;23.25;14.90;;;;;;;5.43;100.00;100023.88;5001851;28;20151;-78
2022/11/22 01:32:31;;;;;;;23.70;13.75;;;;;;;4.99;100.00;99946.94;5006433;28;20053;-80
2022/11/22 01:34:57;;;;;;;24.77;14.20;;;;;;;5.99;100.00;100093.22;5004504;28;20473;-80
2022/11/22 01:37:22;;;;;;;20.95;14.20;;;;;;;5.46;100.00;100086.38;5007027;28;20041;-80
2022/11/22 01:39:48;;;;;;;18.55;12.15;;;;;;;4.85;100.00;99958.88;5002359;28;20038;-80
2022/11/22 01:42:13;;;;;;;21.35;13.98;;;;;;;4.76;100.00;99945.72;5004830;28;20046;-80
2022/11/22 01:44:41;;;;;;;29.05;14.52;;;;;;;4.76;100.00;99985.56;5005003;28;20502;-80
2022/11/22 01:47:16;;;;;;;21.95;15.10;;;;;;;4.62;100.00;99958.50;5004199;28;20141;-79
2022/11/22 01:49:48;;;;;;;25.63;15.07;;;;;;;4.19;100.00;99867.75;5006018;28;20041;-80
2022/11/22 01:52:20;;;;;;;20.93;13.97;;;;;;;5.58;100.00;100115.19;5006216;28;20113;-81
2022/11/22 01:55:01;;;;;;;59.95;17.60;;;;;;;4.68;100.00;100013.16;4989299;28;20054;-80
2022/11/22 01:57:31;;;;;;;30.67;15.10;;;;;;;4.54;100.00;99983.44;4994439;28;20476;-79
2022/11/22 02:00:07;;;;;;;52.53;16.02;;;;;;;4.49;100.00;99954.78;4974007;28;20054;-80
2022/11/22 02:02:34;;;;;;;24.58;13.70;;;;;;;4.87;100.00;100024.75;4995000;28;20034;-80
2022/11/22 02:05:05;;;;;;;28.33;15.65;;;;;;;4.66;100.00;99975.91;5017547;28;20133;-80
2022/11/22 02:07:43;;;;;;;105.38;19.95;;;;;;;4.63;100.00;99958.50;5001936;28;20040;-79
2022/11/22 02:10:09;;;;;;;55.10;14.38;;;;;;;4.26;100.00;99943.13;4995091;28;20040;-79
2022/11/22 02:12:35;;;;;;;24.17;15.73;;;;;;;4.81;100.00;99994.31;4994073;28;20042;-80
2022/11/22 02:15:01;;;;;;;27.13;15.02;;;;;;;4.39;100.00;99961.56;5002391;28;20042;-79
2022/11/22 02:17:28;;;;;;;42.30;17.63;;;;;;;4.24;100.00;99953.50;5006570;28;20053;-78
2022/11/22 02:19:54;;;;;;;21.80;15.30;;;;;;;4.21;100.00;99953.44;4998539;28;20046;-79
2022/11/22 02:23:13;;;;;;;20.88;13.63;;;;;;;4.84;100.00;100103.53;5002105;28;20049;-79
2022/11/22 02:25:48;;;;;;;39.25;17.10;;;;;;;4.81;100.00;100113.03;4941222;28;20075;-79
2022/11/22 02:28:13;;;;;;;89.32;20.10;;;;;;;4.30;100.00;100028.91;5004983;28;20037;-79
2022/11/22 02:30:40;;;;;;;33.17;13.82;;;;;;;4.19;100.00;99969.00;5004777;28;20563;-79
2022/11/22 02:33:06;;;;;;;32.00;15.32;;;;;;;4.52;100.00;99999.03;4987030;28;20061;-80
2022/11/22 02:35:32;;;;;;;22.50;14.02;;;;;;;4.30;100.00;99952.75;5005882;28;20104;-80
2022/11/22 02:38:10;;;;;;;91.20;19.00;;;;;;;4.02;100.00;99958.28;5004300;28;20599;-81
2022/11/22 02:40:41;;;;;;;59.33;14.07;;;;;;;4.77;100.00;100060.09;5000399;28;20041;-80
2022/11/22 02:43:16;;;;;;;42.78;16.63;;;;;;;4.90;100.00;100108.00;5003919;28;20034;-79
2022/11/22 02:45:42;;;;;;;46.03;15.43;;;;;;;4.83;100.00;100112.19;5005531;28;20054;-78
2022/11/22 02:48:10;;;;;;;67.47;18.05;;;;;;;4.19;100.00;99983.69;5003090;28;20053;-79
2022/11/22 02:50:36;;;;;;;35.42;15.27;;;;;;;4.81;100.00;100103.50;4992262;28;20129;-78
2022/11/22 02:53:03;;;;;;;20.60;14.13;;;;;;;5.24;100.00;100090.34;4978491;28;20080;-78
2022/11/22 02:55:28;;;;;;;21.30;14.10;;;;;;;5.40;100.00;100107.09;4992398;28;20034;-74
2022/11/22 02:57:54;;;;;;;28.45;15.93;;;;;;;4.76;100.00;100075.69;4998255;28;20083;-76
2022/11/22 03:00:21;;;;;;;22.73;13.52;;;;;;;5.38;100.00;100145.22;5002695;28;20521;-77
2022/11/22 03:02:47;;;;;;;22.75;14.40;;;;;;;4.68;100.00;99978.50;4991801;28;20054;-78
2022/11/22 03:05:12;;;;;;;23.60;13.70;;;;;;;4.81;100.00;100011.66;5012223;28;20057;-78
2022/11/22 03:07:38;;;;;;;28.30;14.02;;;;;;;4.66;100.00;100033.06;5004982;28;20852;-77
2022/11/22 03:10:04;;;;;;;44.67;17.20;;;;;;;5.14;100.00;100130.94;4986630;28;20518;-76
2022/11/22 03:12:29;;;;;;;28.40;19.25;;;;;;;4.89;100.00;100042.97;5001944;28;20413;-79
2022/11/22 03:14:56;;;;;;;26.58;13.45;;;;;;;4.51;100.00;99988.59;5004642;28;20050;-78
2022/11/22 03:17:21;;;;;;;32.85;15.77;;;;;;;5.36;100.00;100106.19;4990730;28;20069;-76
2022/11/22 03:19:47;;;;;;;23.77;16.92;;;;;;;5.40;100.00;100062.84;5017001;28;20576;-76
2022/11/22 03:22:12;;;;;;;25.85;15.13;;;;;;;5.73;100.00;100098.91;5008842;28;20065;-76
2022/11/22 03:24:38;;;;;;;29.67;15.95;;;;;;;5.64;100.00;100077.94;5008014;28;20568;-76
2022/11/22 03:27:05;;;;;;;28.50;14.27;;;;;;;5.85;100.00;100101.72;5006228;28;20046;-77
2022/11/22 03:29:30;;;;;;;28.67;13.85;;;;;;;5.64;100.00;100072.75;4993544;28;20050;-77
2022/11/22 03:31:55;;;;;;;19.27;12.13;;;;;;;5.00;100.00;99946.09;4995612;28;20499;-76
2022/11/22 03:34:21;;;;;;;23.50;13.70;;;;;;;5.21;100.00;99976.75;5007529;28;20041;-78
2022/11/22 03:36:46;;;;;;;21.42;14.52;;;;;;;5.29;100.00;99990.75;4987093;28;20104;-77
2022/11/22 03:39:12;;;;;;;20.13;12.95;;;;;;;5.19;100.00;99962.84;5005017;28;20046;-77
2022/11/22 03:41:37;;;;;;;30.83;14.35;;;;;;;5.84;100.00;100076.50;5004559;28;20391;-75
2022/11/22 03:44:03;;;;;;;22.70;13.80;;;;;;;5.14;100.00;99968.84;4997083;28;20133;-76
2022/11/22 03:46:29;;;;;;;15.82;12.65;;;;;;;5.83;100.00;100073.88;5025732;28;20044;-78
2022/11/22 03:48:54;;;;;;;23.05;13.30;;;;;;;5.96;100.00;100099.28;5035054;28;20828;-78
2022/11/22 03:51:19;;;;;;;21.25;13.60;;;;;;;6.11;100.00;100103.78;5014548;28;20666;-79
2022/11/22 03:53:45;;;;;;;24.85;12.95;;;;;;;5.48;100.00;99985.81;5008676;28;20046;-77
2022/11/22 03:56:10;;;;;;;23.38;16.05;;;;;;;6.15;100.00;100094.31;5007912;28;20081;-80
2022/11/22 03:58:36;;;;;;;21.33;12.35;;;;;;;6.20;100.00;100101.31;5019234;28;20068;-80
2022/11/22 04:01:02;;;;;;;22.23;13.82;;;;;;;4.99;100.00;99964.28;5030017;28;20030;-80
2022/11/22 04:03:27;;;;;;;17.42;12.43;;;;;;;5.29;100.00;100005.44;5006222;28;20053;-79
2022/11/22 04:05:53;;;;;;;20.38;13.55;;;;;;;5.26;100.00;99951.66;5006310;28;20532;-79
2022/11/22 04:08:18;;;;;;;26.40;13.40;;;;;;;5.79;100.00;100059.97;5016216;28;20104;-80
2022/11/22 04:10:44;;;;;;;28.88;14.27;;;;;;;5.94;100.00;100059.31;4999310;28;20097;-78
2022/11/22 04:13:09;;;;;;;19.10;11.88;;;;;;;5.44;100.00;99978.81;4972034;28;20573;-79
2022/11/22 04:15:36;;;;;;;24.33;15.23;;;;;;;5.60;100.00;99980.75;5007135;28;20057;-78
2022/11/22 04:18:01;;;;;;;28.25;15.23;;;;;;;5.60;100.00;100084.84;4987336;28;20056;-78
2022/11/22 04:23:14;;;;;;;19.33;12.52;;;;;;;6.11;100.00;100107.31;5016976;28;20053;-78
2022/11/22 04:25:45;;;;;;;25.35;15.07;;;;;;;6.25;100.00;100122.22;5028359;28;20055;-79
2022/11/22 04:28:11;;;;;;;21.27;12.98;;;;;;;6.09;100.00;100090.78;5010602;28;20044;-79
2022/11/22 04:33:21;;;;;;;22.20;15.07;;;;;;;5.83;100.00;100121.63;5005412;28;20122;-76
2022/11/22 04:35:47;;;;;;;17.27;11.40;;;;;;;5.25;100.00;100004.53;4984144;28;20401;-76
2022/11/22 04:38:14;;;;;;;29.10;14.38;;;;;;;5.97;100.00;100103.66;4993435;28;20060;-77
2022/11/22 04:40:40;;;;;;;19.83;12.95;;;;;;;5.55;100.00;100020.56;5007937;28;20121;-77
2022/11/22 04:45:50;;;;;;;19.05;13.05;;;;;;;5.56;100.00;100061.38;5000791;28;20108;-77
2022/11/22 04:48:17;;;;;;;18.33;12.05;;;;;;;5.13;100.00;99995.66;4988835;28;20128;-76
2022/11/22 04:53:28;;;;;;;18.02;10.52;;;;;;;5.52;100.00;100050.03;4999787;28;20068;-78
2022/11/22 04:55:54;;;;;;;22.40;12.90;;;;;;;6.17;100.00;100145.56;5007337;28;20050;-76
2022/11/22 04:58:20;;;;;;;20.38;12.38;;;;;;;5.89;100.00;100121.72;5008041;28;20038;-76
2022/11/22 05:00:46;;;;;;;18.38;12.20;;;;;;;6.08;100.00;100172.34;4989987;28;20065;-76
2022/11/22 05:03:12;;;;;;;21.02;12.52;;;;;;;5.60;100.00;100076.19;4991875;28;20050;-77
2022/11/22 05:05:39;;;;;;;20.98;12.98;;;;;;;6.28;100.00;100157.00;5004067;28;20041;-77
2022/11/22 05:08:06;;;;;;;19.52;12.43;;;;;;;5.44;100.00;100069.88;5008693;28;20058;-76
2022/11/22 05:10:55;;;;;;;24.27;14.45;;;;;;;5.22;100.00;100053.03;5001273;28;20069;-77
2022/11/22 05:13:17;;;;;;;20.27;13.68;;;;;;;5.12;100.00;100046.81;5004912;28;20133;-79
2022/11/22 05:15:43;;;;;;;21.42;13.77;;;;;;;4.90;100.00;100023.94;5003655;28;20050;-79
2022/11/22 05:18:08;;;;;;;19.77;12.82;;;;;;;5.43;100.00;100076.81;5007412;28;20038;-78
2022/11/22 05:20:34;;;;;;;22.05;15.57;;;;;;;6.23;100.00;100153.47;5026783;28;20537;-78
2022/11/22 05:25:44;;;;;;;25.48;15.13;;;;;;;6.28;100.00;100179.59;4987390;28;20406;-77
2022/11/22 05:28:09;;;;;;;24.25;14.27;;;;;;;6.34;100.00;100196.19;5002460;28;20033;-79
2022/11/22 05:30:38;;;;;;;25.63;15.20;;;;;;;5.90;100.00;100123.47;5000226;28;20510;-77
2022/11/22 05:33:03;;;;;;;22.70;14.63;;;;;;;5.80;100.00;100183.19;5003947;28;20580;-76
2022/11/22 05:35:29;;;;;;;22.10;15.10;;;;;;;5.94;100.00;100127.00;5006848;28;20053;-75
2022/11/22 05:37:55;;;;;;;21.95;14.90;;;;;;;6.19;100.00;100156.03;5000361;28;20049;-76
2022/11/22 05:40:21;;;;;;;29.88;16.33;;;;;;;6.26;100.00;100163.06;5003765;28;20068;-79
2022/11/22 05:42:47;;;;;;;19.85;14.60;;;;;;;6.02;100.00;100120.19;5005452;28;20517;-75
2022/11/22 05:45:12;;;;;;;23.88;14.88;;;;;;;6.37;100.00;100195.34;5006193;28;20111;-76
2022/11/22 05:47:37;;;;;;;31.02;17.67;;;;;;;5.78;100.00;100101.56;5003470;28;20128;-78
2022/11/22 05:50:03;;;;;;;26.17;16.05;;;;;;;6.52;100.00;100192.06;5006470;28;20050;-77
2022/11/22 05:52:30;;;;;;;27.55;15.57;;;;;;;6.56;100.00;100227.75;4995085;28;20117;-77
2022/11/22 05:54:55;;;;;;;24.25;15.10;;;;;;;6.00;100.00;100108.00;5005740;28;20103;-78
2022/11/22 05:57:21;;;;;;;23.50;15.43;;;;;;;6.60;100.00;100200.84;5004474;28;20065;-78
2022/11/22 05:59:46;;;;;;;28.23;16.88;;;;;;;5.50;100.00;100082.94;4985963;28;20494;-77
2022/11/22 06:02:13;;;;;;;34.30;17.15;;;;;;;5.50;100.00;100156.72;5002850;28;20116;-78
2022/11/22 06:04:38;;;;;;;24.15;16.23;;;;;;;5.53;100.00;100161.09;5006381;28;20132;-79
2022/11/22 06:07:04;;;;;;;29.63;18.05;;;;;;;5.71;100.00;100230.75;4996520;28;20116;-78
2022/11/22 06:09:29;;;;;;;30.90;16.60;;;;;;;5.65;100.00;100265.38;5007596;28;20061;-77
2022/11/22 06:11:56;;;;;;;25.70;16.25;;;;;;;5.80;100.00;100263.91;5005259;28;20054;-78
2022/11/22 06:14:21;;;;;;;27.63;16.90;;;;;;;4.94;100.00;100119.31;5002188;28;20074;-77
2022/11/22 06:16:49;;;;;;;22.25;16.85;;;;;;;6.06;100.00;100256.53;5005189;28;20057;-76
2022/11/22 06:19:14;;;;;;;25.02;17.17;;;;;;;5.65;100.00;100118.75;5007893;28;20037;-76
2022/11/22 06:21:40;;;;;;;23.92;16.00;;;;;;;6.62;100.00;100247.78;5006646;28;20053;-77
2022/11/22 06:24:06;;;;;;;24.00;16.70;;;;;;;6.73;100.00;100259.25;4985649;28;20174;-76
2022/11/22 06:26:31;;;;;;;30.23;17.23;;;;;;;6.26;100.00;100153.50;5006214;28;20041;-76
2022/11/22 06:28:57;;;;;;;23.98;18.23;;;;;;;6.89;100.00;100261.19;5001257;28;20046;-77
2022/11/22 06:31:24;;;;;;;25.30;17.50;;;;;;;6.95;100.00;100258.69;4999750;28;20042;-78
2022/11/22 06:33:51;;;;;;;25.95;16.20;;;;;;;6.92;100.00;100244.72;4993647;28;20039;-77
2022/11/22 06:36:19;;;;;;;24.55;17.05;;;;;;;7.06;100.00;100252.69;4996737;28;20038;-78
2022/11/22 06:38:46;;;;;;;26.17;17.50;;;;;;;6.48;100.00;100175.50;4994870;28;20061;-81
2022/11/22 06:41:24;;;;;;;29.33;18.77;;;;;;;6.27;100.00;100128.31;5001177;28;20509;-80
2022/11/22 06:43:51;;;;;;;27.42;16.90;;;;;;;6.82;100.00;100272.41;4997575;28;20128;-77
2022/11/22 06:46:18;;;;;;;28.38;17.85;;;;;;;6.86;100.00;100260.25;4983657;28;20652;-77
2022/11/22 06:48:44;;;;;;;30.83;19.52;;;;;;;6.41;100.00;100150.22;5016994;28;20050;-77
2022/11/22 06:51:13;;;;;;;31.67;19.73;;;;;;;6.47;100.00;100134.66;5020652;28;20046;-76
2022/11/22 06:53:39;;;;;;;24.45;17.75;;;;;;;6.29;100.00;100134.44;5018191;28;20053;-77
2022/11/22 06:56:12;;;;;;;29.95;16.63;;;;;;;6.70;100.00;100256.63;5018022;28;20109;-76
2022/11/22 06:58:38;;;;;;;26.53;16.87;;;;;;;5.83;100.00;100137.25;5009464;28;20038;-76
2022/11/22 07:01:09;;;;;;;34.85;24.25;;;;;;;5.72;100.00;100116.25;5009838;28;20080;-77
2022/11/22 07:03:36;;;;;;;28.70;17.35;;;;;;;6.89;100.00;100274.25;5009139;28;20054;-77
2022/11/22 07:06:04;;;;;;;32.20;16.90;;;;;;;6.21;100.00;100204.69;5003063;28;20058;-80
2022/11/22 07:08:30;;;;;;;32.03;19.83;;;;;;;6.95;100.00;100266.50;5023106;28;20112;-76
2022/11/22 07:11:17;;;;;;;25.88;18.02;;;;;;;6.38;100.00;100155.41;5010946;28;20104;-75
2022/11/22 07:13:44;;;;;;;25.35;18.88;;;;;;;6.97;100.00;100222.16;4992088;28;20112;-75
2022/11/22 07:16:12;;;;;;;24.55;17.33;;;;;;;6.26;100.00;100148.28;4989843;28;20046;-75
2022/11/22 07:18:38;;;;;;;29.50;16.65;;;;;;;7.24;100.00;100273.78;5004838;28;20524;-75
2022/11/22 07:21:21;;;;;;;33.65;16.92;;;;;;;5.99;100.00;100156.59;4996270;28;20486;-76
2022/11/22 07:23:49;;;;;;;25.40;18.10;;;;;;;5.95;100.00;100156.53;4999430;28;20376;-77
2022/11/22 07:26:16;;;;;;;28.45;17.08;;;;;;;6.49;100.00;100164.22;4988326;28;20073;-76
2022/11/22 07:28:42;;;;;;;31.23;20.35;;;;;;;7.40;100.00;100277.44;5006244;28;20052;-75
2022/11/22 07:31:10;;;;;;;34.67;24.65;;;;;;;6.93;100.00;100157.75;5005674;28;20030;-75
2022/11/22 07:33:35;;;;;;;32.85;24.55;;;;;;;6.87;100.00;100153.38;4991846;28;20057;-75
2022/11/22 07:36:05;;;;;;;32.33;20.15;;;;;;;7.59;100.00;100274.16;5007934;28;20497;-76
2022/11/22 07:38:31;;;;;;;32.50;19.40;;;;;;;7.35;100.00;100242.56;5005043;28;20057;-76
2022/11/22 07:40:56;;;;;;;37.28;28.60;;;;;;;7.25;100.00;100201.59;5008973;28;20046;-77
2022/11/22 07:43:22;;;;;;;30.02;20.90;;;;;;;7.52;100.00;100292.34;5003853;28;20454;-80
2022/11/22 07:45:47;;;;;;;32.42;19.70;;;;;;;7.03;100.00;100183.09;5023014;28;20465;-78
2022/11/22 07:48:13;;;;;;;31.98;19.95;;;;;;;6.51;100.00;100109.53;5012973;28;20332;-76
2022/11/22 07:50:40;;;;;;;43.80;26.70;;;;;;;7.60;100.00;100298.53;5004879;28;20391;-77
2022/11/22 07:53:06;;;;;;;29.25;21.17;;;;;;;6.70;100.00;100288.75;5004552;28;20066;-78
2022/11/22 07:55:31;;;;;;;42.20;28.63;;;;;;;7.14;100.00;100293.69;4988466;28;20038;-79
2022/11/22 07:57:59;;;;;;;36.20;21.95;;;;;;;6.96;100.00;100267.38;5003978;28;20038;-78
2022/11/22 08:00:26;;;;;;;29.30;21.05;;;;;;;7.55;100.00;100318.50;5003605;28;20058;-79
2022/11/22 08:02:52;;;;;;;30.17;20.92;;;;;;;7.60;100.00;100301.13;5001334;28;20070;-79
2022/11/22 08:05:17;;;;;;;38.55;24.75;;;;;;;7.48;100.00;100257.50;4988965;28;20379;-79
2022/11/22 08:07:48;;;;;;;43.17;29.90;;;;;;;7.55;100.00;100264.53;5018385;28;20057;-77
2022/11/22 08:10:14;;;;;;;35.28;21.60;;;;;;;7.00;100.00;100180.47;5005372;28;20037;-79
2022/11/22 08:12:40;;;;;;;31.23;19.48;;;;;;;7.12;100.00;100188.41;5009419;28;20053;-78
2022/11/22 08:15:06;;;;;;;35.15;23.00;;;;;;;7.37;100.00;100295.66;5003896;28;20046;-79
2022/11/22 08:17:32;;;;;;;40.13;29.30;;;;;;;6.63;100.00;100296.50;4984842;28;20585;-77
2022/11/22 08:19:57;;;;;;;37.55;21.92;;;;;;;7.25;100.00;100274.66;5009095;28;20037;-77
2022/11/22 08:22:23;;;;;;;47.65;29.30;;;;;;;6.42;100.00;100161.53;4987654;28;20438;-75
2022/11/22 08:24:49;;;;;;;32.33;22.58;;;;;;;7.08;100.00;100172.72;5008674;28;20107;-80
2022/11/22 08:27:15;;;;;;;31.98;22.02;;;;;;;7.10;100.00;100226.66;5007053;28;20045;-80
2022/11/22 08:29:40;;;;;;;36.30;21.35;;;;;;;7.16;100.00;100297.19;5003086;28;20073;-81
2022/11/22 08:32:06;;;;;;;33.75;22.15;;;;;;;6.76;100.00;100252.31;5001941;28;20133;-79
2022/11/22 08:34:32;;;;;;;48.20;32.47;;;;;;;7.19;100.00;100184.16;5006418;28;20096;-80
2022/11/22 08:37:00;;;;;;;39.20;24.20;;;;;;;7.80;100.00;100268.25;5003819;28;20473;-75
2022/11/22 08:39:26;;;;;;;43.80;24.92;;;;;;;7.48;100.00;100175.69;5006627;28;20069;-77
2022/11/22 08:41:51;;;;;;;37.22;20.63;;;;;;;6.80;100.00;100278.47;5006548;28;20096;-78
2022/11/22 08:44:17;;;;;;;40.88;26.02;;;;;;;6.87;100.00;100192.47;5007467;28;20058;-75
2022/11/22 08:46:42;;;;;;;64.63;33.58;;;;;;;7.58;100.00;100288.06;5005943;28;20452;-76
2022/11/22 08:49:10;;;;;;;49.42;34.03;;;;;;;7.82;100.00;100287.44;5008744;28;20053;-78
2022/11/22 08:51:36;;;;;;;45.60;33.47;;;;;;;7.99;100.00;100255.34;5008123;28;20100;-78
2022/11/22 08:54:02;;;;;;;38.85;29.23;;;;;;;7.16;100.00;100262.38;5004236;28;20058;-76
2022/11/22 08:56:28;;;;;;;42.58;23.83;;;;;;;7.40;100.00;100253.94;5006416;28;20056;-77
2022/11/22 08:58:53;;;;;;;37.97;22.50;;;;;;;7.88;100.00;100259.59;5005522;28;20129;-76
2022/11/22 09:01:20;;;;;;;35.40;24.38;;;;;;;8.30;100.00;100242.50;5006226;28;20104;-77
2022/11/22 09:03:46;;;;;;;37.22;25.90;;;;;;;7.93;100.00;100138.59;5005323;28;20041;-77
2022/11/22 09:06:14;;;;;;;46.20;33.22;;;;;;;8.28;100.00;100213.72;4989726;28;20473;-76
2022/11/22 09:08:40;;;;;;;46.17;32.00;;;;;;;8.66;100.00;100281.97;5010200;28;20214;-81
2022/11/22 09:11:11;;;;;;;38.50;30.63;;;;;;;8.59;100.00;100242.69;4988538;28;20105;-79
2022/11/22 09:13:36;;;;;;;40.30;28.13;;;;;;;8.70;100.00;100263.69;5005307;28;20066;-76
2022/11/22 09:16:11;;;;;;;56.30;32.90;;;;;;;8.35;100.00;100259.94;4991827;28;20064;-78
2022/11/22 09:18:37;;;;;;;47.38;30.33;;;;;;;7.96;100.00;100265.75;5014255;28;20541;-77
2022/11/22 09:21:06;;;;;;;50.85;34.88;;;;;;;7.58;100.00;100222.78;5011147;28;20053;-79
2022/11/22 09:23:32;;;;;;;46.88;32.92;;;;;;;7.31;100.00;100212.97;5004520;28;20077;-80
2022/11/22 09:26:05;;;;;;;45.92;34.35;;;;;;;7.63;100.00;100282.00;5005637;28;20248;-78
2022/11/22 09:28:30;;;;;;;35.00;23.98;;;;;;;7.91;100.00;100273.56;5002822;28;20041;-80
2022/11/22 09:31:08;;;;;;;43.58;32.85;;;;;;;6.81;100.00;100160.25;5003671;28;20048;-79
2022/11/22 09:33:35;;;;;;;52.13;32.75;;;;;;;6.92;100.00;100158.63;5006694;28;20049;-79
2022/11/22 09:36:03;;;;;;;42.78;30.27;;;;;;;6.56;100.00;100118.28;5000455;28;20084;-77
2022/11/22 09:38:29;;;;;;;34.38;26.30;;;;;;;8.01;100.00;100275.41;4993992;28;20049;-77
2022/11/22 09:40:55;;;;;;;45.80;33.08;;;;;;;7.69;100.00;100198.50;5009166;28;20073;-77
2022/11/22 09:43:41;;;;;;;45.55;33.60;;;;;;;6.48;100.00;100075.59;5026315;28;20040;-77
2022/11/22 09:46:28;;;;;;;36.78;24.13;;;;;;;7.77;100.00;100252.56;5017325;28;20037;-74
2022/11/22 09:48:53;;;;;;;47.17;34.60;;;;;;;7.82;100.00;100276.97;5002202;28;20560;-79
2022/11/22 09:51:24;;;;;;;54.03;33.10;;;;;;;7.29;100.00;100154.66;5007603;28;20045;-80
2022/11/22 09:54:16;;;;;;;39.38;28.92;;;;;;;7.19;100.00;100108.47;5007510;28;20046;-78
2022/11/22 09:56:43;;;;;;;46.17;36.05;;;;;;;7.96;100.00;100243.13;4987576;28;20493;-78
2022/11/22 09:59:21;;;;;;;44.83;27.40;;;;;;;7.92;100.00;100236.13;5002881;28;20054;-77
2022/11/22 10:02:09;;;;;;;39.40;28.45;;;;;;;7.95;100.00;100230.91;5002489;28;20049;-77
2022/11/22 10:04:39;;;;;;;48.08;34.47;;;;;;;6.91;100.00;100116.03;4986079;28;20039;-76
2022/11/22 10:07:30;;;;;;;47.25;33.85;;;;;;;8.00;100.00;100272.75;5006784;28;20116;-77
2022/11/22 10:10:18;;;;;;;49.42;35.40;;;;;;;8.07;100.00;100229.28;5013055;28;20053;-78
2022/11/22 10:13:01;;;;;;;51.80;34.17;;;;;;;8.27;100.00;100284.31;5000059;28;20069;-78
2022/11/22 10:15:45;;;;;;;46.72;34.83;;;;;;;7.99;100.00;100276.25;4988705;28;20148;-77
2022/11/22 10:18:22;;;;;;;41.85;29.92;;;;;;;7.17;100.00;100120.63;5008084;28;20053;-77
2022/11/22 10:20:48;;;;;;;47.70;28.27;;;;;;;7.51;100.00;100178.34;5014576;28;20046;-77
2022/11/22 10:23:24;;;;;;;44.45;34.50;;;;;;;7.49;100.00;100229.66;5007630;28;20085;-76
2022/11/22 10:25:58;;;;;;;40.78;33.05;;;;;;;7.30;100.00;100242.50;5010307;28;20054;-76
2022/11/22 10:28:41;;;;;;;52.90;36.45;;;;;;;6.92;100.00;100249.91;4995273;28;20080;-76
2022/11/22 10:31:17;;;;;;;53.42;33.95;;;;;;;7.53;100.00;100241.88;5007865;28;20033;-76
2022/11/22 10:34:19;;;;;;;43.53;32.83;;;;;;;7.79;100.00;100234.28;5009421;28;20053;-77
2022/11/22 10:36:44;;;;;;;40.33;26.00;;;;;;;7.75;100.00;100164.59;5008400;28;20137;-75
2022/11/22 10:39:30;;;;;;;45.90;33.47;;;;;;;7.91;100.00;100122.03;5006816;28;20400;-78
2022/11/22 10:42:14;;;;;;;45.45;34.90;;;;;;;8.81;100.00;100238.47;5003247;28;20076;-77
2022/11/22 10:44:58;;;;;;;48.78;34.15;;;;;;;8.35;100.00;100235.56;4989615;28;20064;-77
2022/11/22 10:47:51;;;;;;;45.58;32.25;;;;;;;8.52;100.00;100244.44;4998571;28;20045;-75
2022/11/22 10:50:28;;;;;;;35.93;23.27;;;;;;;8.71;100.00;100236.66;5006081;28;20096;-76
2022/11/22 10:53:05;;;;;;;44.83;28.13;;;;;;;9.04;100.00;100235.94;5015746;28;20042;-75
2022/11/22 10:55:45;;;;;;;45.65;33.80;;;;;;;7.51;100.00;100123.50;5008189;28;20586;-76
2022/11/22 10:58:26;;;;;;;47.17;32.10;;;;;;;7.74;100.00;100228.16;4993973;28;20080;-76
2022/11/22 11:01:01;;;;;;;50.30;33.15;;;;;;;8.55;100.00;100231.34;5004644;28;20072;-77
2022/11/22 11:03:33;;;;;;;47.25;33.35;;;;;;;8.04;100.00;100066.38;5005846;28;20054;-77
2022/11/22 11:06:22;;;;;;;47.88;32.83;;;;;;;8.66;99.81;100234.91;5012012;28;20128;-77
2022/11/22 11:09:01;;;;;;;48.53;34.13;;;;;;;8.02;99.91;100120.38;4994272;28;20037;-77
2022/11/22 11:11:29;;;;;;;48.83;36.40;;;;;;;9.10;99.30;100243.78;4996693;28;20124;-77
2022/11/22 11:14:23;;;;;;;52.15;33.92;;;;;;;8.63;99.35;100234.00;4991092;28;20904;-76
2022/11/22 11:16:50;;;;;;;49.50;34.65;;;;;;;8.45;99.88;100212.13;4991290;28;20047;-76
2022/11/22 11:19:18;;;;;;;49.05;36.90;;;;;;;7.82;99.79;100108.94;4990263;28;20374;-76
2022/11/22 11:21:44;;;;;;;49.15;35.63;;;;;;;8.80;100.00;100208.81;4990592;28;20469;-76
2022/11/22 11:24:14;;;;;;;54.08;36.38;;;;;;;8.23;99.98;100087.38;5009334;28;20132;-76
2022/11/22 11:26:43;;;;;;;48.28;34.58;;;;;;;7.71;99.92;100132.38;4993269;28;20108;-76
2022/11/22 11:29:14;;;;;;;44.47;32.22;;;;;;;8.69;100.00;100212.25;5006262;28;20073;-75
2022/11/22 11:31:45;;;;;;;49.15;38.00;;;;;;;8.08;99.89;100212.72;5009117;28;20124;-75